createdAt,value
2019-04-07T00:02:03.055Z,8.15
2019-04-07T00:07:03.525Z,8.10
2019-04-07T00:12:02.938Z,8.10
2019-04-07T00:17:01.897Z,8.13
2019-04-07T00:22:03.288Z,8.14
2019-04-07T00:27:02.554Z,8.07
2019-04-07T00:32:01.349Z,8.08
2019-04-07T00:37:00.908Z,8.09
2019-04-07T00:41:59.981Z,8.19
2019-04-07T00:46:59.973Z,8.22
2019-04-07T00:51:59.628Z,8.21
2019-04-07T00:56:59.323Z,8.27
2019-04-07T01:01:58.005Z,8.59
2019-04-07T01:06:59.079Z,8.95
2019-04-07T01:11:55.965Z,9.18
2019-04-07T01:16:56.199Z,9.24
2019-04-07T01:21:55.726Z,9.31
2019-04-07T01:26:55.031Z,9.33
2019-04-07T01:31:55.100Z,9.15
2019-04-07T01:36:55.694Z,8.98
2019-04-07T01:41:54.061Z,9.06
2019-04-07T01:46:54.058Z,9.02
2019-04-07T01:51:54.072Z,8.72
2019-04-07T01:56:54.082Z,8.41
2019-04-07T02:01:53.836Z,8.29
2019-04-07T02:06:53.484Z,8.13
2019-04-07T02:11:53.126Z,7.90
2019-04-07T02:16:52.141Z,7.80
2019-04-07T02:21:51.581Z,7.57
2019-04-07T02:26:50.259Z,7.58
2019-04-07T02:31:50.125Z,7.66
2019-04-07T02:41:48.617Z,7.33
2019-04-07T02:46:48.432Z,7.11
2019-04-07T02:51:48.180Z,6.97
2019-04-07T02:56:48.497Z,6.88
2019-04-07T03:01:48.444Z,6.92
2019-04-07T03:06:52.872Z,7.15
2019-04-07T03:11:48.984Z,7.17
2019-04-07T03:16:48.277Z,7.18
2019-04-07T03:21:48.300Z,7.21
2019-04-07T03:26:47.763Z,7.29
2019-04-07T03:31:49.097Z,6.71
2019-04-07T03:37:12.816Z,6.47
2019-04-07T03:41:47.406Z,6.62
2019-04-07T03:46:47.521Z,6.89
2019-04-07T03:51:46.618Z,7.10
2019-04-07T03:56:47.721Z,7.11
2019-04-07T04:06:47.352Z,6.29
2019-04-07T04:11:47.014Z,6.24
2019-04-07T04:16:46.317Z,6.68
2019-04-07T04:21:46.319Z,6.86
2019-04-07T04:26:45.980Z,6.81
2019-04-07T04:31:45.917Z,6.85
2019-04-07T04:36:45.766Z,6.14
2019-04-07T04:41:44.792Z,5.96
2019-04-07T04:46:45.256Z,5.74
2019-04-07T04:51:44.524Z,5.50
2019-04-07T04:56:44.878Z,5.37
2019-04-07T05:11:44.482Z,6.05
2019-04-07T05:16:44.774Z,6.32
2019-04-07T05:26:45.436Z,6.55
2019-04-07T05:41:45.817Z,5.76
2019-04-07T05:46:45.262Z,5.68
2019-04-07T05:51:43.458Z,6.05
2019-04-07T06:01:42.486Z,7.29
2019-04-07T06:06:43.091Z,7.65
2019-04-07T06:16:42.822Z,7.62
2019-04-07T06:21:41.662Z,7.78
2019-04-07T06:26:42.110Z,8.75
2019-04-07T06:31:41.618Z,9.67
2019-04-07T06:36:41.644Z,9.63
2019-04-07T06:41:40.630Z,9.84
2019-04-07T06:51:39.825Z,9.99
2019-04-07T06:56:39.009Z,10.02
2019-04-07T07:01:38.648Z,10.21
2019-04-07T07:06:39.467Z,10.61
2019-04-07T07:21:39.500Z,12.58
2019-04-07T07:26:37.017Z,12.70
2019-04-07T07:31:35.846Z,12.57
2019-04-07T07:41:36.839Z,13.13
2019-04-07T07:46:37.568Z,13.57
2019-04-07T07:56:36.707Z,15.54
2019-04-07T08:01:35.183Z,16.32
2019-04-07T08:06:38.283Z,16.10
2019-04-07T08:11:37.300Z,16.70
2019-04-07T08:16:35.741Z,16.68
2019-04-07T08:21:35.764Z,17.37
2019-04-07T08:26:35.199Z,17.96
2019-04-07T08:31:35.831Z,18.32
2019-04-07T08:36:35.835Z,18.94
2019-04-07T08:41:34.747Z,18.87
2019-04-07T08:46:38.630Z,18.10
2019-04-07T08:51:35.064Z,18.07
2019-04-07T08:56:33.074Z,18.92
2019-04-07T09:01:32.470Z,19.09
2019-04-07T09:06:33.183Z,19.61
2019-04-07T09:11:32.260Z,19.67
2019-04-07T09:21:38.679Z,18.96
2019-04-07T09:26:32.096Z,18.78
2019-04-07T09:31:33.152Z,19.02
2019-04-07T09:36:33.472Z,19.50
2019-04-07T09:41:32.157Z,19.20
2019-04-07T09:51:30.912Z,19.26
2019-04-07T09:56:32.467Z,20.13
2019-04-07T10:01:30.722Z,20.52
2019-04-07T10:06:29.897Z,20.20
2019-04-07T10:11:30.264Z,20.39
2019-04-07T10:16:32.058Z,20.77
2019-04-07T10:21:30.060Z,20.68
2019-04-07T10:26:29.054Z,20.50
2019-04-07T10:31:28.382Z,20.36
2019-04-07T10:36:28.089Z,20.55
2019-04-07T10:41:28.288Z,20.59
2019-04-07T10:46:28.358Z,20.19
2019-04-07T10:51:27.426Z,20.16
2019-04-07T10:56:26.583Z,20.08
2019-04-07T11:01:26.683Z,20.60
2019-04-07T11:06:25.121Z,20.55
2019-04-07T11:11:24.961Z,20.94
2019-04-07T11:16:24.759Z,20.62
2019-04-07T11:21:23.717Z,20.47
2019-04-07T11:26:23.529Z,20.84
2019-04-07T11:31:21.999Z,20.84
2019-04-07T11:36:22.465Z,20.09
2019-04-07T11:41:24.382Z,19.72
2019-04-07T11:46:21.063Z,19.30
2019-04-07T11:56:22.824Z,20.56
2019-04-07T12:01:22.990Z,20.71
2019-04-07T12:06:24.626Z,20.43
2019-04-07T12:11:23.364Z,20.73
2019-04-07T12:16:26.626Z,20.12
2019-04-07T12:21:23.258Z,20.61
2019-04-07T12:26:21.098Z,19.89
2019-04-07T12:31:20.069Z,21.12
2019-04-07T12:36:19.094Z,20.10
2019-04-07T12:41:22.009Z,20.40
2019-04-07T12:46:21.008Z,20.25
2019-04-07T12:51:21.568Z,20.04
2019-04-07T12:56:20.274Z,20.55
2019-04-07T13:01:19.957Z,20.25
2019-04-07T13:06:18.405Z,20.69
2019-04-07T13:16:23.860Z,19.28
2019-04-07T13:21:18.333Z,19.35
2019-04-07T13:26:18.693Z,20.44
2019-04-07T13:31:18.145Z,19.97
2019-04-07T13:36:18.148Z,19.49
2019-04-07T13:41:18.607Z,19.64
2019-04-07T13:46:23.866Z,19.58
2019-04-07T13:51:18.301Z,19.83
2019-04-07T13:56:18.293Z,19.73
2019-04-07T14:01:19.304Z,19.67
2019-04-07T14:06:17.530Z,20.09
2019-04-07T14:11:16.316Z,20.47
2019-04-07T14:16:15.983Z,20.49
2019-04-07T14:21:15.758Z,20.91
2019-04-07T14:26:15.735Z,20.68
2019-04-07T14:31:16.474Z,20.90
2019-04-07T14:36:16.091Z,19.66
2019-04-07T14:41:14.234Z,20.32
2019-04-07T14:46:14.411Z,20.13
2019-04-07T14:51:14.325Z,20.41
2019-04-07T14:56:12.503Z,20.86
2019-04-07T15:06:12.361Z,20.74
2019-04-07T15:11:14.166Z,20.84
2019-04-07T15:16:11.143Z,20.95
2019-04-07T15:21:09.915Z,20.97
2019-04-07T15:26:11.969Z,20.76
2019-04-07T15:31:09.699Z,20.73
2019-04-07T15:36:09.314Z,20.16
2019-04-07T15:41:13.839Z,20.42
2019-04-07T15:46:08.449Z,20.06
2019-04-07T15:51:08.004Z,20.04
2019-04-07T15:56:08.218Z,19.85
2019-04-07T16:01:09.055Z,19.80
2019-04-07T16:06:07.807Z,19.67
2019-04-07T16:16:06.373Z,19.36
2019-04-07T16:21:09.455Z,19.19
2019-04-07T16:26:07.714Z,19.12
2019-04-07T16:31:07.400Z,18.97
2019-04-07T16:36:06.396Z,18.79
2019-04-07T16:41:06.436Z,18.68
2019-04-07T16:46:05.595Z,18.67
2019-04-07T16:51:04.484Z,18.47
2019-04-07T16:56:05.484Z,18.28
2019-04-07T17:01:05.778Z,18.01
2019-04-07T17:06:05.439Z,17.76
2019-04-07T17:11:07.161Z,17.11
2019-04-07T17:16:04.739Z,17.15
2019-04-07T17:21:06.446Z,16.93
2019-04-07T17:26:05.978Z,17.01
2019-04-07T17:31:05.850Z,16.81
2019-04-07T17:36:06.503Z,16.64
2019-04-07T17:41:08.908Z,16.82
2019-04-07T17:46:06.238Z,16.94
2019-04-07T17:51:07.231Z,16.90
2019-04-07T18:01:06.521Z,16.70
2019-04-07T18:11:05.734Z,16.38
2019-04-07T18:16:05.088Z,16.01
2019-04-07T18:21:04.718Z,15.42
2019-04-07T18:26:08.024Z,15.06
2019-04-07T18:31:06.381Z,14.94
2019-04-07T18:36:05.674Z,14.83
2019-04-07T18:41:08.122Z,14.70
2019-04-07T18:46:01.794Z,14.49
2019-04-07T18:51:00.995Z,14.23
2019-04-07T18:56:01.463Z,14.19
2019-04-07T19:01:04.143Z,14.12
2019-04-07T19:06:02.176Z,14.09
2019-04-07T19:11:10.313Z,14.08
2019-04-07T19:15:59.922Z,14.13
2019-04-07T19:21:01.070Z,14.23
2019-04-07T19:25:59.894Z,14.36
2019-04-07T19:30:59.891Z,14.37
2019-04-07T19:35:59.861Z,14.34
2019-04-07T19:41:00.386Z,14.24
2019-04-07T19:46:00.615Z,14.01
2019-04-07T19:51:01.228Z,13.92
2019-04-07T20:01:01.928Z,13.73
2019-04-07T20:06:02.769Z,13.78
2019-04-07T20:11:01.950Z,13.63
2019-04-07T20:16:02.492Z,13.42
2019-04-07T20:21:02.918Z,13.02
2019-04-07T20:26:02.034Z,12.85
2019-04-07T20:31:02.961Z,12.69
2019-04-07T20:36:01.134Z,12.79
2019-04-07T20:41:01.047Z,12.80
2019-04-07T20:46:00.297Z,12.84
2019-04-07T20:51:00.492Z,12.74
2019-04-07T20:55:58.970Z,12.75
2019-04-07T21:05:58.244Z,12.40
2019-04-07T21:10:58.018Z,12.17
2019-04-07T21:15:55.997Z,12.18
2019-04-07T21:20:56.776Z,11.93
2019-04-07T21:25:57.191Z,11.69
2019-04-07T21:30:55.761Z,11.66
2019-04-07T21:40:54.444Z,11.20
2019-04-07T21:45:54.494Z,10.98
2019-04-07T21:50:53.709Z,11.06
2019-04-07T21:55:53.304Z,11.17
2019-04-07T22:00:53.100Z,11.41
2019-04-07T22:05:51.088Z,11.30
2019-04-07T22:10:52.236Z,11.15
2019-04-07T22:15:56.348Z,10.80
2019-04-07T22:20:53.387Z,10.66
2019-04-07T22:25:51.110Z,10.49
2019-04-07T22:30:51.147Z,10.01
2019-04-07T22:35:51.356Z,9.61
2019-04-07T22:40:49.995Z,9.51
2019-04-07T22:45:59.158Z,9.26
2019-04-07T22:55:48.658Z,9.26
2019-04-07T23:00:48.138Z,9.66
2019-04-07T23:05:49.174Z,9.37
2019-04-07T23:10:46.253Z,8.59
2019-04-07T23:15:47.263Z,8.31
2019-04-07T23:20:46.203Z,8.34
2019-04-07T23:25:46.085Z,8.57
2019-04-07T23:30:47.122Z,8.63
2019-04-07T23:35:46.866Z,7.90
2019-04-07T23:40:46.207Z,7.71
2019-04-07T23:45:45.746Z,7.61
2019-04-07T23:50:44.906Z,7.51
2019-04-07T23:55:44.308Z,7.37
